sensor_id;sensor_type;location;lat;lon;timestamp;P1;durP1;ratioP1;P2;durP2;ratioP2
51732;SDS011;39139;53.144;6.244;2023-11-19T00:00:28;85.72;;;41.80;;
51732;SDS011;39139;53.144;6.244;2023-11-19T00:02:54;91.50;;;41.47;;
51732;SDS011;39139;53.144;6.244;2023-11-19T00:05:19;91.63;;;42.25;;
51732;SDS011;39139;53.144;6.244;2023-11-19T00:07:45;76.97;;;40.90;;
51732;SDS011;39139;53.144;6.244;2023-11-19T00:10:11;69.88;;;39.53;;
51732;SDS011;39139;53.144;6.244;2023-11-19T00:12:39;79.38;;;41.88;;
51732;SDS011;39139;53.144;6.244;2023-11-19T00:15:07;75.22;;;34.38;;
51732;SDS011;39139;53.144;6.244;2023-11-19T00:17:40;87.25;;;34.38;;
51732;SDS011;39139;53.144;6.244;2023-11-19T00:20:10;84.38;;;39.85;;
51732;SDS011;39139;53.144;6.244;2023-11-19T00:22:36;92.55;;;36.80;;
51732;SDS011;39139;53.144;6.244;2023-11-19T00:25:02;85.00;;;37.95;;
51732;SDS011;39139;53.144;6.244;2023-11-19T00:27:28;88.32;;;38.38;;
51732;SDS011;39139;53.144;6.244;2023-11-19T00:29:54;70.95;;;36.25;;
51732;SDS011;39139;53.144;6.244;2023-11-19T00:32:20;84.57;;;35.65;;
51732;SDS011;39139;53.144;6.244;2023-11-19T00:34:45;83.07;;;35.92;;
51732;SDS011;39139;53.144;6.244;2023-11-19T00:37:12;91.32;;;36.70;;
51732;SDS011;39139;53.144;6.244;2023-11-19T00:39:39;94.20;;;36.72;;
51732;SDS011;39139;53.144;6.244;2023-11-19T00:42:04;89.10;;;35.50;;
51732;SDS011;39139;53.144;6.244;2023-11-19T00:44:30;92.53;;;36.60;;
51732;SDS011;39139;53.144;6.244;2023-11-19T00:46:56;80.93;;;35.00;;
51732;SDS011;39139;53.144;6.244;2023-11-19T00:49:22;78.22;;;36.55;;
51732;SDS011;39139;53.144;6.244;2023-11-19T00:51:47;89.70;;;37.13;;
51732;SDS011;39139;53.144;6.244;2023-11-19T00:54:14;76.88;;;36.00;;
51732;SDS011;39139;53.144;6.244;2023-11-19T00:56:40;82.40;;;34.35;;
51732;SDS011;39139;53.144;6.244;2023-11-19T00:59:05;75.95;;;38.05;;
51732;SDS011;39139;53.144;6.244;2023-11-19T01:01:31;82.13;;;37.88;;
51732;SDS011;39139;53.144;6.244;2023-11-19T01:03:56;90.75;;;35.80;;
51732;SDS011;39139;53.144;6.244;2023-11-19T01:06:31;80.65;;;39.72;;
51732;SDS011;39139;53.144;6.244;2023-11-19T01:08:57;64.57;;;35.60;;
51732;SDS011;39139;53.144;6.244;2023-11-19T01:11:27;95.35;;;40.05;;
51732;SDS011;39139;53.144;6.244;2023-11-19T01:13:53;101.60;;;36.60;;
51732;SDS011;39139;53.144;6.244;2023-11-19T01:16:19;86.05;;;35.40;;
51732;SDS011;39139;53.144;6.244;2023-11-19T01:18:49;87.45;;;34.53;;
51732;SDS011;39139;53.144;6.244;2023-11-19T01:21:15;94.40;;;35.20;;
51732;SDS011;39139;53.144;6.244;2023-11-19T01:23:41;85.10;;;34.45;;
51732;SDS011;39139;53.144;6.244;2023-11-19T01:26:08;88.05;;;34.75;;
51732;SDS011;39139;53.144;6.244;2023-11-19T01:28:35;79.40;;;39.67;;
51732;SDS011;39139;53.144;6.244;2023-11-19T01:31:01;91.32;;;39.70;;
51732;SDS011;39139;53.144;6.244;2023-11-19T01:33:28;82.30;;;39.25;;
51732;SDS011;39139;53.144;6.244;2023-11-19T01:35:54;91.28;;;40.13;;
51732;SDS011;39139;53.144;6.244;2023-11-19T01:38:21;91.00;;;41.40;;
51732;SDS011;39139;53.144;6.244;2023-11-19T01:40:46;88.65;;;40.05;;
51732;SDS011;39139;53.144;6.244;2023-11-19T01:43:12;90.85;;;42.42;;
51732;SDS011;39139;53.144;6.244;2023-11-19T01:45:55;86.03;;;41.95;;
51732;SDS011;39139;53.144;6.244;2023-11-19T01:48:21;89.80;;;45.15;;
51732;SDS011;39139;53.144;6.244;2023-11-19T01:50:47;89.88;;;43.63;;
51732;SDS011;39139;53.144;6.244;2023-11-19T01:53:13;90.65;;;41.50;;
51732;SDS011;39139;53.144;6.244;2023-11-19T01:55:39;97.05;;;39.40;;
51732;SDS011;39139;53.144;6.244;2023-11-19T01:58:05;93.78;;;42.08;;
51732;SDS011;39139;53.144;6.244;2023-11-19T02:00:32;102.07;;;41.70;;
51732;SDS011;39139;53.144;6.244;2023-11-19T02:02:58;91.10;;;43.67;;
51732;SDS011;39139;53.144;6.244;2023-11-19T02:05:24;74.97;;;39.78;;
51732;SDS011;39139;53.144;6.244;2023-11-19T02:07:50;100.80;;;43.95;;
51732;SDS011;39139;53.144;6.244;2023-11-19T02:10:16;79.47;;;44.83;;
51732;SDS011;39139;53.144;6.244;2023-11-19T02:12:44;76.30;;;44.17;;
51732;SDS011;39139;53.144;6.244;2023-11-19T02:15:11;85.80;;;42.58;;
51732;SDS011;39139;53.144;6.244;2023-11-19T02:17:36;75.63;;;42.75;;
51732;SDS011;39139;53.144;6.244;2023-11-19T02:20:05;87.95;;;46.63;;
51732;SDS011;39139;53.144;6.244;2023-11-19T02:22:36;91.75;;;44.88;;
51732;SDS011;39139;53.144;6.244;2023-11-19T02:25:12;100.95;;;45.30;;
51732;SDS011;39139;53.144;6.244;2023-11-19T02:27:56;94.78;;;48.38;;
51732;SDS011;39139;53.144;6.244;2023-11-19T02:30:24;94.97;;;46.85;;
51732;SDS011;39139;53.144;6.244;2023-11-19T02:32:57;84.63;;;46.08;;
51732;SDS011;39139;53.144;6.244;2023-11-19T02:37:49;91.18;;;46.60;;
51732;SDS011;39139;53.144;6.244;2023-11-19T02:40:15;96.80;;;44.08;;
51732;SDS011;39139;53.144;6.244;2023-11-19T02:42:40;90.20;;;48.28;;
51732;SDS011;39139;53.144;6.244;2023-11-19T02:45:07;95.13;;;47.20;;
51732;SDS011;39139;53.144;6.244;2023-11-19T02:47:38;96.80;;;49.17;;
51732;SDS011;39139;53.144;6.244;2023-11-19T02:50:04;98.20;;;52.92;;
51732;SDS011;39139;53.144;6.244;2023-11-19T02:52:38;84.22;;;52.78;;
51732;SDS011;39139;53.144;6.244;2023-11-19T02:55:04;105.53;;;52.38;;
51732;SDS011;39139;53.144;6.244;2023-11-19T02:57:34;98.65;;;55.03;;
51732;SDS011;39139;53.144;6.244;2023-11-19T03:00:00;96.00;;;44.10;;
51732;SDS011;39139;53.144;6.244;2023-11-19T03:02:25;78.25;;;42.47;;
51732;SDS011;39139;53.144;6.244;2023-11-19T03:04:58;102.00;;;42.45;;
51732;SDS011;39139;53.144;6.244;2023-11-19T03:07:25;90.82;;;41.00;;
51732;SDS011;39139;53.144;6.244;2023-11-19T03:09:50;87.50;;;44.03;;
51732;SDS011;39139;53.144;6.244;2023-11-19T03:12:16;86.65;;;45.88;;
51732;SDS011;39139;53.144;6.244;2023-11-19T03:14:41;91.50;;;45.63;;
51732;SDS011;39139;53.144;6.244;2023-11-19T03:17:07;88.60;;;48.28;;
51732;SDS011;39139;53.144;6.244;2023-11-19T03:19:34;88.10;;;43.63;;
51732;SDS011;39139;53.144;6.244;2023-11-19T03:22:01;71.30;;;44.53;;
51732;SDS011;39139;53.144;6.244;2023-11-19T03:24:27;94.65;;;48.55;;
51732;SDS011;39139;53.144;6.244;2023-11-19T03:26:52;93.93;;;46.67;;
51732;SDS011;39139;53.144;6.244;2023-11-19T03:29:18;75.32;;;45.65;;
51732;SDS011;39139;53.144;6.244;2023-11-19T03:31:43;91.45;;;50.70;;
51732;SDS011;39139;53.144;6.244;2023-11-19T03:34:10;81.30;;;49.67;;
51732;SDS011;39139;53.144;6.244;2023-11-19T03:36:35;81.00;;;50.35;;
51732;SDS011;39139;53.144;6.244;2023-11-19T03:39:01;91.65;;;49.10;;
51732;SDS011;39139;53.144;6.244;2023-11-19T03:41:28;98.75;;;64.13;;
51732;SDS011;39139;53.144;6.244;2023-11-19T03:43:53;98.40;;;62.13;;
51732;SDS011;39139;53.144;6.244;2023-11-19T03:46:20;101.82;;;56.00;;
51732;SDS011;39139;53.144;6.244;2023-11-19T03:48:46;92.68;;;65.22;;
51732;SDS011;39139;53.144;6.244;2023-11-19T03:51:13;92.88;;;60.78;;
51732;SDS011;39139;53.144;6.244;2023-11-19T03:53:44;104.57;;;64.45;;
51732;SDS011;39139;53.144;6.244;2023-11-19T03:56:11;103.07;;;57.78;;
51732;SDS011;39139;53.144;6.244;2023-11-19T03:58:37;94.47;;;58.92;;
51732;SDS011;39139;53.144;6.244;2023-11-19T04:01:06;90.95;;;57.03;;
51732;SDS011;39139;53.144;6.244;2023-11-19T04:03:37;97.88;;;53.90;;
51732;SDS011;39139;53.144;6.244;2023-11-19T04:06:02;94.25;;;55.33;;
51732;SDS011;39139;53.144;6.244;2023-11-19T04:08:29;87.40;;;49.83;;
51732;SDS011;39139;53.144;6.244;2023-11-19T04:10:54;100.28;;;41.25;;
51732;SDS011;39139;53.144;6.244;2023-11-19T04:13:20;85.43;;;41.67;;
51732;SDS011;39139;53.144;6.244;2023-11-19T04:15:46;91.18;;;38.03;;
51732;SDS011;39139;53.144;6.244;2023-11-19T04:18:11;83.75;;;36.63;;
51732;SDS011;39139;53.144;6.244;2023-11-19T04:20:37;75.53;;;32.90;;
51732;SDS011;39139;53.144;6.244;2023-11-19T04:23:03;97.43;;;34.78;;
51732;SDS011;39139;53.144;6.244;2023-11-19T04:25:28;93.53;;;33.65;;
51732;SDS011;39139;53.144;6.244;2023-11-19T04:27:54;92.57;;;33.28;;
51732;SDS011;39139;53.144;6.244;2023-11-19T04:30:20;81.03;;;29.25;;
51732;SDS011;39139;53.144;6.244;2023-11-19T04:32:45;81.38;;;29.13;;
51732;SDS011;39139;53.144;6.244;2023-11-19T04:35:11;83.88;;;32.30;;
51732;SDS011;39139;53.144;6.244;2023-11-19T04:37:37;83.38;;;31.30;;
51732;SDS011;39139;53.144;6.244;2023-11-19T04:40:03;77.70;;;30.83;;
51732;SDS011;39139;53.144;6.244;2023-11-19T04:42:29;88.30;;;31.63;;
51732;SDS011;39139;53.144;6.244;2023-11-19T04:44:57;88.95;;;28.98;;
51732;SDS011;39139;53.144;6.244;2023-11-19T04:47:23;67.72;;;24.00;;
51732;SDS011;39139;53.144;6.244;2023-11-19T04:49:48;85.80;;;26.30;;
51732;SDS011;39139;53.144;6.244;2023-11-19T04:52:14;84.95;;;26.15;;
51732;SDS011;39139;53.144;6.244;2023-11-19T04:54:43;73.95;;;26.73;;
51732;SDS011;39139;53.144;6.244;2023-11-19T04:57:09;82.18;;;21.52;;
51732;SDS011;39139;53.144;6.244;2023-11-19T04:59:38;82.35;;;20.48;;
51732;SDS011;39139;53.144;6.244;2023-11-19T05:02:04;78.47;;;20.25;;
51732;SDS011;39139;53.144;6.244;2023-11-19T05:04:30;76.32;;;21.05;;
51732;SDS011;39139;53.144;6.244;2023-11-19T05:06:56;76.47;;;20.55;;
51732;SDS011;39139;53.144;6.244;2023-11-19T05:09:22;83.68;;;22.52;;
51732;SDS011;39139;53.144;6.244;2023-11-19T05:11:48;78.50;;;21.52;;
51732;SDS011;39139;53.144;6.244;2023-11-19T05:14:13;86.93;;;21.67;;
51732;SDS011;39139;53.144;6.244;2023-11-19T05:16:40;87.82;;;21.33;;
51732;SDS011;39139;53.144;6.244;2023-11-19T05:19:06;72.97;;;17.63;;
51732;SDS011;39139;53.144;6.244;2023-11-19T05:21:32;75.18;;;18.90;;
51732;SDS011;39139;53.144;6.244;2023-11-19T05:23:58;77.32;;;17.58;;
51732;SDS011;39139;53.144;6.244;2023-11-19T05:26:24;71.47;;;15.80;;
51732;SDS011;39139;53.144;6.244;2023-11-19T05:28:49;73.32;;;15.38;;
51732;SDS011;39139;53.144;6.244;2023-11-19T05:31:16;74.97;;;15.27;;
51732;SDS011;39139;53.144;6.244;2023-11-19T05:33:43;70.18;;;14.93;;
51732;SDS011;39139;53.144;6.244;2023-11-19T05:36:10;70.45;;;13.93;;
51732;SDS011;39139;53.144;6.244;2023-11-19T05:38:37;69.28;;;14.27;;
51732;SDS011;39139;53.144;6.244;2023-11-19T05:41:03;62.85;;;13.32;;
51732;SDS011;39139;53.144;6.244;2023-11-19T05:43:30;78.75;;;13.88;;
51732;SDS011;39139;53.144;6.244;2023-11-19T05:45:56;72.75;;;13.98;;
51732;SDS011;39139;53.144;6.244;2023-11-19T05:48:21;67.10;;;12.18;;
51732;SDS011;39139;53.144;6.244;2023-11-19T05:50:47;81.18;;;11.77;;
51732;SDS011;39139;53.144;6.244;2023-11-19T05:53:15;65.72;;;12.90;;
51732;SDS011;39139;53.144;6.244;2023-11-19T05:55:41;70.00;;;12.02;;
51732;SDS011;39139;53.144;6.244;2023-11-19T05:58:19;64.78;;;12.30;;
51732;SDS011;39139;53.144;6.244;2023-11-19T06:00:57;51.70;;;9.02;;
51732;SDS011;39139;53.144;6.244;2023-11-19T06:03:22;90.60;;;14.32;;
51732;SDS011;39139;53.144;6.244;2023-11-19T06:05:48;61.60;;;11.27;;
51732;SDS011;39139;53.144;6.244;2023-11-19T06:08:15;76.68;;;12.40;;
51732;SDS011;39139;53.144;6.244;2023-11-19T06:10:41;68.25;;;12.32;;
51732;SDS011;39139;53.144;6.244;2023-11-19T06:13:07;59.40;;;11.50;;
51732;SDS011;39139;53.144;6.244;2023-11-19T06:15:35;62.28;;;11.48;;
51732;SDS011;39139;53.144;6.244;2023-11-19T06:18:01;86.60;;;13.70;;
51732;SDS011;39139;53.144;6.244;2023-11-19T06:20:28;56.15;;;11.75;;
51732;SDS011;39139;53.144;6.244;2023-11-19T06:22:56;65.28;;;11.88;;
51732;SDS011;39139;53.144;6.244;2023-11-19T06:25:22;67.78;;;11.73;;
51732;SDS011;39139;53.144;6.244;2023-11-19T06:27:49;61.60;;;11.98;;
51732;SDS011;39139;53.144;6.244;2023-11-19T06:30:15;72.50;;;11.70;;
51732;SDS011;39139;53.144;6.244;2023-11-19T06:32:41;62.90;;;10.90;;
51732;SDS011;39139;53.144;6.244;2023-11-19T06:35:07;62.65;;;11.65;;
51732;SDS011;39139;53.144;6.244;2023-11-19T06:37:34;71.80;;;11.68;;
51732;SDS011;39139;53.144;6.244;2023-11-19T06:40:00;70.88;;;12.20;;
51732;SDS011;39139;53.144;6.244;2023-11-19T06:42:26;61.53;;;11.27;;
51732;SDS011;39139;53.144;6.244;2023-11-19T06:44:52;78.20;;;12.43;;
51732;SDS011;39139;53.144;6.244;2023-11-19T06:47:18;68.35;;;11.25;;
51732;SDS011;39139;53.144;6.244;2023-11-19T06:49:44;62.47;;;11.68;;
51732;SDS011;39139;53.144;6.244;2023-11-19T06:52:10;67.35;;;12.43;;
51732;SDS011;39139;53.144;6.244;2023-11-19T06:54:35;64.60;;;11.95;;
51732;SDS011;39139;53.144;6.244;2023-11-19T06:57:01;72.53;;;11.85;;
51732;SDS011;39139;53.144;6.244;2023-11-19T06:59:28;69.38;;;11.98;;
51732;SDS011;39139;53.144;6.244;2023-11-19T07:01:54;74.03;;;12.52;;
51732;SDS011;39139;53.144;6.244;2023-11-19T07:04:20;68.90;;;11.20;;
51732;SDS011;39139;53.144;6.244;2023-11-19T07:06:46;64.47;;;10.75;;
51732;SDS011;39139;53.144;6.244;2023-11-19T07:09:13;76.10;;;11.13;;
51732;SDS011;39139;53.144;6.244;2023-11-19T07:11:39;72.10;;;11.98;;
51732;SDS011;39139;53.144;6.244;2023-11-19T07:14:09;64.68;;;11.02;;
51732;SDS011;39139;53.144;6.244;2023-11-19T07:16:35;62.80;;;11.27;;
51732;SDS011;39139;53.144;6.244;2023-11-19T07:19:04;63.17;;;11.65;;
51732;SDS011;39139;53.144;6.244;2023-11-19T07:21:30;78.53;;;11.48;;
51732;SDS011;39139;53.144;6.244;2023-11-19T07:23:57;78.57;;;12.55;;
51732;SDS011;39139;53.144;6.244;2023-11-19T07:26:23;55.70;;;10.90;;
51732;SDS011;39139;53.144;6.244;2023-11-19T07:28:49;71.32;;;12.32;;
51732;SDS011;39139;53.144;6.244;2023-11-19T07:31:16;70.63;;;11.48;;
51732;SDS011;39139;53.144;6.244;2023-11-19T07:33:44;71.60;;;12.27;;
51732;SDS011;39139;53.144;6.244;2023-11-19T07:36:13;63.33;;;12.23;;
51732;SDS011;39139;53.144;6.244;2023-11-19T07:38:39;66.38;;;10.50;;
51732;SDS011;39139;53.144;6.244;2023-11-19T07:41:05;61.28;;;10.80;;
51732;SDS011;39139;53.144;6.244;2023-11-19T07:43:31;69.10;;;11.60;;
51732;SDS011;39139;53.144;6.244;2023-11-19T07:45:56;59.70;;;10.68;;
51732;SDS011;39139;53.144;6.244;2023-11-19T07:48:24;58.80;;;10.25;;
51732;SDS011;39139;53.144;6.244;2023-11-19T07:50:51;59.55;;;11.20;;
51732;SDS011;39139;53.144;6.244;2023-11-19T07:53:18;54.63;;;9.52;;
51732;SDS011;39139;53.144;6.244;2023-11-19T07:55:44;76.85;;;11.40;;
51732;SDS011;39139;53.144;6.244;2023-11-19T07:58:10;70.22;;;11.23;;
51732;SDS011;39139;53.144;6.244;2023-11-19T08:00:36;62.35;;;10.38;;
51732;SDS011;39139;53.144;6.244;2023-11-19T08:03:03;63.80;;;11.63;;
51732;SDS011;39139;53.144;6.244;2023-11-19T08:05:29;62.47;;;10.02;;
51732;SDS011;39139;53.144;6.244;2023-11-19T08:07:56;69.05;;;11.90;;
51732;SDS011;39139;53.144;6.244;2023-11-19T08:10:21;54.92;;;10.65;;
51732;SDS011;39139;53.144;6.244;2023-11-19T08:12:47;64.75;;;11.77;;
51732;SDS011;39139;53.144;6.244;2023-11-19T08:15:13;66.82;;;10.90;;
51732;SDS011;39139;53.144;6.244;2023-11-19T08:17:39;54.53;;;10.45;;
51732;SDS011;39139;53.144;6.244;2023-11-19T08:20:05;56.67;;;10.43;;
51732;SDS011;39139;53.144;6.244;2023-11-19T08:22:35;63.45;;;11.70;;
51732;SDS011;39139;53.144;6.244;2023-11-19T08:25:02;62.22;;;11.63;;
51732;SDS011;39139;53.144;6.244;2023-11-19T08:27:29;54.25;;;9.25;;
51732;SDS011;39139;53.144;6.244;2023-11-19T08:29:55;76.88;;;12.07;;
51732;SDS011;39139;53.144;6.244;2023-11-19T08:32:22;61.95;;;10.23;;
51732;SDS011;39139;53.144;6.244;2023-11-19T08:34:48;55.65;;;11.10;;
51732;SDS011;39139;53.144;6.244;2023-11-19T08:37:14;86.22;;;11.77;;
51732;SDS011;39139;53.144;6.244;2023-11-19T08:39:40;69.10;;;11.38;;
51732;SDS011;39139;53.144;6.244;2023-11-19T08:42:07;84.95;;;12.43;;
51732;SDS011;39139;53.144;6.244;2023-11-19T08:44:32;74.78;;;11.07;;
51732;SDS011;39139;53.144;6.244;2023-11-19T08:46:58;73.28;;;12.77;;
51732;SDS011;39139;53.144;6.244;2023-11-19T08:49:24;82.28;;;12.70;;
51732;SDS011;39139;53.144;6.244;2023-11-19T08:51:49;70.78;;;10.35;;
51732;SDS011;39139;53.144;6.244;2023-11-19T08:54:15;60.45;;;11.93;;
51732;SDS011;39139;53.144;6.244;2023-11-19T08:56:40;67.15;;;11.50;;
51732;SDS011;39139;53.144;6.244;2023-11-19T08:59:06;68.38;;;12.73;;
51732;SDS011;39139;53.144;6.244;2023-11-19T09:01:32;75.40;;;14.32;;
51732;SDS011;39139;53.144;6.244;2023-11-19T09:03:58;64.63;;;10.82;;
51732;SDS011;39139;53.144;6.244;2023-11-19T09:06:23;73.55;;;12.93;;
51732;SDS011;39139;53.144;6.244;2023-11-19T09:08:49;69.72;;;12.23;;
51732;SDS011;39139;53.144;6.244;2023-11-19T09:11:15;65.43;;;10.88;;
51732;SDS011;39139;53.144;6.244;2023-11-19T09:13:41;60.80;;;10.98;;
51732;SDS011;39139;53.144;6.244;2023-11-19T09:16:07;50.70;;;10.23;;
51732;SDS011;39139;53.144;6.244;2023-11-19T09:18:34;77.93;;;12.95;;
51732;SDS011;39139;53.144;6.244;2023-11-19T09:21:00;83.75;;;11.90;;
51732;SDS011;39139;53.144;6.244;2023-11-19T09:23:25;64.10;;;11.10;;
51732;SDS011;39139;53.144;6.244;2023-11-19T09:25:52;48.95;;;9.82;;
51732;SDS011;39139;53.144;6.244;2023-11-19T09:28:18;59.90;;;11.77;;
51732;SDS011;39139;53.144;6.244;2023-11-19T09:30:44;55.70;;;10.85;;
51732;SDS011;39139;53.144;6.244;2023-11-19T09:33:09;74.15;;;11.88;;
51732;SDS011;39139;53.144;6.244;2023-11-19T09:35:35;67.18;;;10.65;;
51732;SDS011;39139;53.144;6.244;2023-11-19T09:38:01;63.28;;;10.40;;
51732;SDS011;39139;53.144;6.244;2023-11-19T09:40:27;62.25;;;11.70;;
51732;SDS011;39139;53.144;6.244;2023-11-19T09:42:53;61.83;;;10.23;;
51732;SDS011;39139;53.144;6.244;2023-11-19T09:45:20;63.50;;;10.95;;
51732;SDS011;39139;53.144;6.244;2023-11-19T09:47:46;62.15;;;10.50;;
51732;SDS011;39139;53.144;6.244;2023-11-19T09:50:21;57.40;;;10.55;;
51732;SDS011;39139;53.144;6.244;2023-11-19T09:52:47;49.45;;;9.45;;
51732;SDS011;39139;53.144;6.244;2023-11-19T09:55:13;60.45;;;10.50;;
51732;SDS011;39139;53.144;6.244;2023-11-19T09:57:39;68.28;;;10.73;;
51732;SDS011;39139;53.144;6.244;2023-11-19T10:00:09;61.70;;;9.13;;
51732;SDS011;39139;53.144;6.244;2023-11-19T10:02:37;59.97;;;10.68;;
51732;SDS011;39139;53.144;6.244;2023-11-19T10:05:04;54.22;;;9.52;;
51732;SDS011;39139;53.144;6.244;2023-11-19T10:07:32;54.05;;;10.93;;
51732;SDS011;39139;53.144;6.244;2023-11-19T10:10:02;63.83;;;11.63;;
51732;SDS011;39139;53.144;6.244;2023-11-19T10:12:31;52.35;;;9.82;;
51732;SDS011;39139;53.144;6.244;2023-11-19T10:14:57;51.22;;;9.93;;
51732;SDS011;39139;53.144;6.244;2023-11-19T10:17:33;55.60;;;10.95;;
51732;SDS011;39139;53.144;6.244;2023-11-19T10:19:59;70.85;;;11.15;;
51732;SDS011;39139;53.144;6.244;2023-11-19T10:22:25;68.47;;;11.23;;
51732;SDS011;39139;53.144;6.244;2023-11-19T10:24:52;71.72;;;11.13;;
51732;SDS011;39139;53.144;6.244;2023-11-19T10:27:17;65.13;;;11.75;;
51732;SDS011;39139;53.144;6.244;2023-11-19T10:29:44;62.30;;;10.27;;
51732;SDS011;39139;53.144;6.244;2023-11-19T10:32:13;58.88;;;10.10;;
51732;SDS011;39139;53.144;6.244;2023-11-19T10:34:42;62.45;;;10.65;;
51732;SDS011;39139;53.144;6.244;2023-11-19T10:37:08;74.68;;;10.38;;
51732;SDS011;39139;53.144;6.244;2023-11-19T10:39:52;65.22;;;10.50;;
51732;SDS011;39139;53.144;6.244;2023-11-19T10:42:19;53.28;;;10.10;;
51732;SDS011;39139;53.144;6.244;2023-11-19T10:44:45;61.25;;;10.43;;
51732;SDS011;39139;53.144;6.244;2023-11-19T10:47:11;53.28;;;8.55;;
51732;SDS011;39139;53.144;6.244;2023-11-19T10:49:40;47.90;;;9.13;;
51732;SDS011;39139;53.144;6.244;2023-11-19T10:52:06;52.08;;;9.07;;
51732;SDS011;39139;53.144;6.244;2023-11-19T10:54:34;62.53;;;10.43;;
51732;SDS011;39139;53.144;6.244;2023-11-19T10:57:00;44.05;;;8.07;;
51732;SDS011;39139;53.144;6.244;2023-11-19T10:59:28;44.95;;;8.27;;
51732;SDS011;39139;53.144;6.244;2023-11-19T11:01:55;53.72;;;9.60;;
51732;SDS011;39139;53.144;6.244;2023-11-19T11:04:25;56.85;;;9.05;;
51732;SDS011;39139;53.144;6.244;2023-11-19T11:06:56;55.85;;;9.10;;
51732;SDS011;39139;53.144;6.244;2023-11-19T11:09:25;65.93;;;10.82;;
51732;SDS011;39139;53.144;6.244;2023-11-19T11:11:52;51.65;;;9.32;;
51732;SDS011;39139;53.144;6.244;2023-11-19T11:14:20;58.10;;;8.75;;
51732;SDS011;39139;53.144;6.244;2023-11-19T11:16:47;53.05;;;10.23;;
51732;SDS011;39139;53.144;6.244;2023-11-19T11:19:15;45.97;;;8.43;;
51732;SDS011;39139;53.144;6.244;2023-11-19T11:21:42;44.38;;;7.28;;
51732;SDS011;39139;53.144;6.244;2023-11-19T11:35:42;57.28;;;9.95;;
51732;SDS011;39139;53.144;6.244;2023-11-19T11:38:31;44.27;;;9.27;;
51732;SDS011;39139;53.144;6.244;2023-11-19T11:41:19;60.30;;;9.80;;
51732;SDS011;39139;53.144;6.244;2023-11-19T11:43:50;52.60;;;9.63;;
51732;SDS011;39139;53.144;6.244;2023-11-19T11:49:01;61.97;;;10.02;;
51732;SDS011;39139;53.144;6.244;2023-11-19T11:59:42;49.88;;;9.20;;
51732;SDS011;39139;53.144;6.244;2023-11-19T12:02:11;46.60;;;9.55;;
51732;SDS011;39139;53.144;6.244;2023-11-19T12:04:45;51.75;;;9.85;;
51732;SDS011;39139;53.144;6.244;2023-11-19T12:07:14;47.08;;;8.52;;
51732;SDS011;39139;53.144;6.244;2023-11-19T12:09:42;49.63;;;8.77;;
51732;SDS011;39139;53.144;6.244;2023-11-19T12:15:00;56.17;;;10.35;;
51732;SDS011;39139;53.144;6.244;2023-11-19T12:20:05;47.97;;;9.05;;
51732;SDS011;39139;53.144;6.244;2023-11-19T12:22:37;45.72;;;8.57;;
51732;SDS011;39139;53.144;6.244;2023-11-19T12:25:04;50.22;;;8.95;;
51732;SDS011;39139;53.144;6.244;2023-11-19T12:27:31;40.75;;;8.25;;
51732;SDS011;39139;53.144;6.244;2023-11-19T12:29:59;43.45;;;8.82;;
51732;SDS011;39139;53.144;6.244;2023-11-19T12:32:25;44.55;;;8.30;;
51732;SDS011;39139;53.144;6.244;2023-11-19T12:34:50;42.97;;;8.45;;
51732;SDS011;39139;53.144;6.244;2023-11-19T12:37:16;47.25;;;8.80;;
51732;SDS011;39139;53.144;6.244;2023-11-19T12:39:42;41.78;;;8.43;;
51732;SDS011;39139;53.144;6.244;2023-11-19T12:42:08;37.40;;;7.03;;
51732;SDS011;39139;53.144;6.244;2023-11-19T12:44:34;37.80;;;8.07;;
51732;SDS011;39139;53.144;6.244;2023-11-19T12:47:00;37.97;;;7.30;;
51732;SDS011;39139;53.144;6.244;2023-11-19T12:49:31;44.35;;;8.63;;
51732;SDS011;39139;53.144;6.244;2023-11-19T12:52:00;47.67;;;8.55;;
51732;SDS011;39139;53.144;6.244;2023-11-19T12:54:35;33.92;;;6.85;;
51732;SDS011;39139;53.144;6.244;2023-11-19T12:57:01;48.28;;;8.55;;
51732;SDS011;39139;53.144;6.244;2023-11-19T12:59:28;56.00;;;8.25;;
51732;SDS011;39139;53.144;6.244;2023-11-19T13:01:54;38.88;;;8.18;;
51732;SDS011;39139;53.144;6.244;2023-11-19T13:04:20;44.72;;;8.60;;
51732;SDS011;39139;53.144;6.244;2023-11-19T13:06:46;51.72;;;9.13;;
51732;SDS011;39139;53.144;6.244;2023-11-19T13:09:25;47.42;;;9.05;;
51732;SDS011;39139;53.144;6.244;2023-11-19T13:11:52;43.72;;;8.40;;
51732;SDS011;39139;53.144;6.244;2023-11-19T13:14:18;46.78;;;8.98;;
51732;SDS011;39139;53.144;6.244;2023-11-19T13:16:44;39.20;;;8.15;;
51732;SDS011;39139;53.144;6.244;2023-11-19T13:19:13;51.53;;;8.85;;
51732;SDS011;39139;53.144;6.244;2023-11-19T13:21:39;44.30;;;8.38;;
51732;SDS011;39139;53.144;6.244;2023-11-19T13:24:08;35.50;;;7.72;;
51732;SDS011;39139;53.144;6.244;2023-11-19T13:26:34;41.88;;;8.15;;
51732;SDS011;39139;53.144;6.244;2023-11-19T13:29:00;36.88;;;7.53;;
51732;SDS011;39139;53.144;6.244;2023-11-19T13:31:25;32.88;;;7.65;;
51732;SDS011;39139;53.144;6.244;2023-11-19T13:33:51;40.40;;;7.63;;
51732;SDS011;39139;53.144;6.244;2023-11-19T13:36:17;40.58;;;7.68;;
51732;SDS011;39139;53.144;6.244;2023-11-19T13:38:43;45.97;;;8.18;;
51732;SDS011;39139;53.144;6.244;2023-11-19T13:41:12;36.03;;;7.75;;
51732;SDS011;39139;53.144;6.244;2023-11-19T13:43:38;41.00;;;7.95;;
51732;SDS011;39139;53.144;6.244;2023-11-19T13:46:05;43.97;;;7.93;;
51732;SDS011;39139;53.144;6.244;2023-11-19T13:48:31;39.83;;;8.02;;
51732;SDS011;39139;53.144;6.244;2023-11-19T13:50:57;35.88;;;7.80;;
51732;SDS011;39139;53.144;6.244;2023-11-19T13:53:23;45.28;;;8.77;;
51732;SDS011;39139;53.144;6.244;2023-11-19T13:55:49;41.30;;;7.65;;
51732;SDS011;39139;53.144;6.244;2023-11-19T13:58:15;41.78;;;8.00;;
51732;SDS011;39139;53.144;6.244;2023-11-19T14:00:41;40.55;;;6.90;;
51732;SDS011;39139;53.144;6.244;2023-11-19T14:03:08;48.33;;;6.85;;
51732;SDS011;39139;53.144;6.244;2023-11-19T14:05:36;38.05;;;6.25;;
51732;SDS011;39139;53.144;6.244;2023-11-19T14:08:02;40.60;;;8.15;;
51732;SDS011;39139;53.144;6.244;2023-11-19T14:10:28;55.88;;;9.00;;
51732;SDS011;39139;53.144;6.244;2023-11-19T14:12:53;43.15;;;8.50;;
51732;SDS011;39139;53.144;6.244;2023-11-19T14:15:19;43.03;;;8.00;;
51732;SDS011;39139;53.144;6.244;2023-11-19T14:17:45;45.58;;;7.63;;
51732;SDS011;39139;53.144;6.244;2023-11-19T14:20:10;40.65;;;7.60;;
51732;SDS011;39139;53.144;6.244;2023-11-19T14:22:41;47.90;;;8.25;;
51732;SDS011;39139;53.144;6.244;2023-11-19T14:25:08;40.15;;;8.35;;
51732;SDS011;39139;53.144;6.244;2023-11-19T14:27:37;36.30;;;7.22;;
51732;SDS011;39139;53.144;6.244;2023-11-19T14:30:05;45.78;;;8.50;;
51732;SDS011;39139;53.144;6.244;2023-11-19T14:32:31;35.92;;;8.90;;
51732;SDS011;39139;53.144;6.244;2023-11-19T14:34:57;48.22;;;8.40;;
51732;SDS011;39139;53.144;6.244;2023-11-19T14:37:22;48.08;;;8.30;;
51732;SDS011;39139;53.144;6.244;2023-11-19T14:39:48;47.35;;;8.13;;
51732;SDS011;39139;53.144;6.244;2023-11-19T14:42:15;47.92;;;7.75;;
51732;SDS011;39139;53.144;6.244;2023-11-19T14:44:42;52.45;;;8.07;;
51732;SDS011;39139;53.144;6.244;2023-11-19T14:47:07;43.22;;;7.43;;
51732;SDS011;39139;53.144;6.244;2023-11-19T14:49:36;54.17;;;8.45;;
51732;SDS011;39139;53.144;6.244;2023-11-19T14:52:02;47.07;;;7.53;;